Aviation Digital Data Service (ADDS)

Output produced by METARs form (1213 UTC 24 November 2014)
found at http://www.aviationweather.gov/adds/metars/
 
KFIG 241154Z AUTO 19009KT 10SM BKN042 OVC060 13/11 A2951 RMK AO2 SLP992 60012 70040 T01280106 10128 20078 53001
KFIG 241054Z AUTO 20009G19KT 10SM SCT017 BKN045 OVC055 13/11 A2949 RMK AO2 SLP985 T01280106
KFIG 241025Z AUTO 20007KT 10SM BKN015 BKN024 OVC041 12/11 A2949 RMK AO2 T01220106
KFIG 240954Z AUTO 19010G16KT 10SM OVC012 12/11 A2949 RMK AO2 SLP985 T01170106
KFIG 240854Z AUTO VRB03KT 10SM OVC010 10/09 A2950 RMK AO2 SLP990 60012 T01000089 56034
KFIG 240754Z AUTO 15004KT 10SM OVC014 09/08 A2954 RMK AO2 RAB21E53 SLP000 P0000 T00890083
KFIG 240704Z AUTO VRB04KT 10SM OVC010 08/08 A2957 RMK AO2 CIG 006V013 T00830078
KFIG 240654Z AUTO 11005KT 10SM OVC008 08/07 A2956 RMK AO2 RAE53 CIG 006V010 SLP011 P0012 T00830072
KFIG 240620Z AUTO 10007KT 4SM +RA BR OVC008 08/07 A2957 RMK AO2 PRESFR P0009 T00780072
KFIG 240554Z AUTO 09010KT 5SM RA BR BKN010 OVC015 08/07 A2961 RMK AO2 CIG 007V012 PRESFR SLP026 P0013 60028 T00780067 10106 20072 58066
KFIG 240454Z AUTO 08006KT 6SM -RA BR OVC013 08/07 A2970 RMK AO2 SLP059 P0011 T00780067 401500006
KFIG 240443Z AUTO 11006KT 4SM RA BR OVC014 08/07 A2971 RMK AO2 PRESFR P0009 T00830072
KFIG 240354Z AUTO VRB06KT 6SM RA BR OVC019 08/07 A2976 RMK AO2 SLP082 P0004 T00830072
KFIG 240254Z AUTO 16008G14KT 110V200 10SM -RA OVC022 10/05 A2981 RMK AO2 RAB44 SLP101 P0000 60000 T01000050 56025
KFIG 240206Z AUTO VRB06KT 10SM OVC028 10/02 A2983 RMK AO2 T01000017
KFIG 240154Z AUTO 14009G16KT 10SM OVC030 11/02 A2984 RMK AO2 SLP108 T01060017
KFIG 240054Z AUTO 10005KT 10SM CLR 10/M02 A2986 RMK AO2 SLP119 T01001022
KFIG 232354Z AUTO 09008KT 10SM CLR 10/M02 A2989 RMK AO2 SLP129 T01001017 10150 20100 58027
KFIG 232254Z AUTO 11005KT 10SM CLR 11/00 A2993 RMK AO2 SLP141 T01110000
KFIG 232154Z AUTO 11004KT 10SM CLR 12/00 A2994 RMK AO2 SLP145 T01170000
KFIG 232054Z AUTO VRB04KT 10SM CLR 13/01 A2997 RMK AO2 SLP155 T01280011 56017
KFIG 231954Z AUTO 15007KT 10SM CLR 15/01 A2998 RMK AO2 SLP156 T01500011
KFIG 231854Z AUTO VRB05KT 10SM CLR 14/02 A3001 RMK AO2 SLP169 T01440022
KFIG 231754Z AUTO 00000KT 10SM CLR 15/02 A3002 RMK AO2 SLP173 T01500022 10150 20017 58028
KFIG 231654Z AUTO 10004KT 10SM CLR 12/02 A3005 RMK AO2 SLP185 T01220022
KFIG 231554Z AUTO 04003KT 10SM BKN080 OVC100 08/03 A3011 RMK AO2 SLP206 T00830033
KFIG 231454Z AUTO 03003KT 10SM BKN038 OVC090 06/03 A3011 RMK AO2 SLP208 T00560028 55003
KFIG 231354Z AUTO 04003KT 6SM HZ BKN036 OVC095 06/03 A3010 RMK AO2 SLP205 T00560028
KFIG 231254Z AUTO 00000KT 7SM OVC039 03/02 A3012 RMK AO2 SLP214 T00280017
KFIG 231154Z AUTO 29003KT 6SM BR OVC040 02/01 A3012 RMK AO2 SLP213 60000 70002 T00220011 10044 20006 53006
KFIG 231150Z AUTO 00000KT 3SM BR OVC040 02/01 A3011 RMK AO2
KFIG 231141Z AUTO 34005KT 1 3/4SM BR OVC041 02/01 A3012 RMK AO2 T00170011
KFIG 231054Z AUTO 33005KT 6SM BR OVC042 02/01 A3011 RMK AO2 RAB26E35 SLP209 P0000 T00170006
KFIG 230954Z AUTO 22004KT 10SM OVC039 04/02 A3010 RMK AO2 RAE23 SLP205 P0000 T00390017
KFIG 230854Z AUTO VRB03KT 8SM -RA BKN043 BKN055 OVC070 02/01 A3010 RMK AO2 RAB49 SLP207 P0000 60000 T00170006 51001
KFIG 230754Z AUTO 00000KT 10SM FEW045 OVC050 02/01 A3010 RMK AO2 UPB06E18RAB18E41 SLP207 P0000 T00170011
KFIG 230654Z AUTO 18004KT 10SM OVC050 02/01 A3010 RMK AO2 SLP208 T00220011
KFIG 230554Z AUTO 00000KT 5SM BR OVC050 01/00 A3010 RMK AO2 SLP208 60000 T00060000 10022 20000 58004
KFIG 230454Z AUTO 35003KT 5SM BR BKN050 OVC070 01/00 A3011 RMK AO2 SLP211 T00060000 400221144
KFIG 230354Z AUTO 00000KT 10SM BKN080 02/00 A3011 RMK AO2 SLP211 T00170000
KFIG 230254Z AUTO 00000KT 10SM BKN065 BKN110 01/00 A3011 RMK AO2 SLP215 60000 T00110000 56010
KFIG 230154Z AUTO 18003KT 10SM BKN070 OVC080 01/00 A3011 RMK AO2 UPB0059E00RAB00E37 SLP218 P0000 T00060000
KFIG 230054Z AUTO 26003KT 7SM BKN045 OVC055 01/00 A3013 RMK AO2 RAE17B40E44UPB44E54 SLP225 P0000 T00060000
KFIG 230047Z AUTO 00000KT 3SM UP BR BKN043 OVC050 00/M01 A3013 RMK AO2 RAE17B40E44UPB44 P0000 T00001006
KFIG 230036Z AUTO 34004KT 1 1/2SM BR OVC041 00/M01 A3013 RMK AO2 RAE17 P0000 T00001006